Time;durP1;ratioP1;P1;durP2;ratioP2;P2;SDS_P1;SDS_P2;PMS_P1;PMS_P2;Temp;Humidity;BMP_temperature;BMP_pressure;BME280_temperature;BME280_humidity;BME280_pressure;Samples;Min_cycle;Max_cycle;Signal;HPM_P1;HPM_P2
2023/05/13 00:01:37;;;;;;;0.17;0.17;;;;;;;10.72;91.21;100847.25;5014879;28;20243;-81
2023/05/13 00:04:07;;;;;;;0.77;0.77;;;;;;;10.66;91.78;100848.44;5015725;28;20180;-82
2023/05/13 00:06:34;;;;;;;0.33;0.33;;;;;;;10.63;91.52;100849.06;5013692;28;20192;-82
2023/05/13 00:09:00;;;;;;;1.03;1.03;;;;;;;10.57;91.38;100848.34;4998687;28;20192;-82
2023/05/13 00:11:25;;;;;;;0.93;0.93;;;;;;;10.55;91.58;100852.47;5015639;28;20211;-82
2023/05/13 00:13:51;;;;;;;0.70;0.70;;;;;;;10.49;92.21;100842.75;5016555;28;20665;-82
2023/05/13 00:16:16;;;;;;;1.17;1.07;;;;;;;10.47;91.95;100843.06;5017984;28;20187;-83
2023/05/13 00:18:41;;;;;;;0.00;0.00;;;;;;;10.46;93.33;100844.19;5017527;28;20188;-82
2023/05/13 00:21:07;;;;;;;0.23;0.20;;;;;;;10.49;93.52;100848.22;5016896;28;20700;-82
2023/05/13 00:23:33;;;;;;;0.23;0.23;;;;;;;10.41;94.46;100838.78;5016693;28;20212;-82
2023/05/13 00:25:59;;;;;;;0.50;0.50;;;;;;;10.40;94.58;100839.91;5031901;28;20196;-82
2023/05/13 00:28:25;;;;;;;0.70;0.50;;;;;;;10.34;94.08;100843.84;5015641;28;20191;-81
2023/05/13 00:30:50;;;;;;;6.60;0.67;;;;;;;10.24;93.68;100852.19;5012239;28;20184;-81
2023/05/13 00:33:16;;;;;;;0.83;0.83;;;;;;;10.13;94.17;100851.56;5011348;28;20188;-81
2023/05/13 00:35:41;;;;;;;0.10;0.10;;;;;;;10.08;94.49;100849.69;5012382;28;20180;-82
2023/05/13 00:38:07;;;;;;;0.73;0.73;;;;;;;10.04;94.79;100847.88;5028156;28;20215;-81
2023/05/13 00:40:35;;;;;;;0.00;0.00;;;;;;;10.04;94.85;100848.69;5011637;28;20686;-82
2023/05/13 00:43:00;;;;;;;0.83;0.83;;;;;;;10.02;94.78;100847.34;5010395;28;20200;-81
2023/05/13 00:45:26;;;;;;;0.93;0.93;;;;;;;10.04;95.09;100856.88;5009770;28;20223;-81
2023/05/13 00:47:51;;;;;;;0.73;0.73;;;;;;;10.01;95.06;100856.66;5026849;28;20211;-81
2023/05/13 00:50:17;;;;;;;0.77;0.77;;;;;;;9.95;95.15;100847.72;5011636;28;20172;-81
2023/05/13 00:52:43;;;;;;;1.87;1.77;;;;;;;9.88;95.49;100847.31;5026876;28;20216;-81
2023/05/13 00:55:09;;;;;;;1.10;0.93;;;;;;;9.89;95.39;100857.09;5011825;28;20183;-81
2023/05/13 00:57:36;;;;;;;0.00;0.00;;;;;;;9.84;96.04;100854.47;5011239;28;20200;-81
2023/05/13 01:00:04;;;;;;;0.40;0.40;;;;;;;9.84;96.10;100859.94;5011577;28;20196;-81
2023/05/13 01:02:36;;;;;;;1.37;1.37;;;;;;;9.80;96.10;100854.22;5011627;28;20234;-81
2023/05/13 01:05:28;;;;;;;0.37;0.37;;;;;;;9.75;96.50;100850.78;5010596;28;20262;-81
2023/05/13 01:08:16;;;;;;;0.20;0.20;;;;;;;9.75;97.35;100842.59;5011665;28;20242;-81
2023/05/13 01:11:00;;;;;;;0.40;0.40;;;;;;;9.68;97.35;100851.13;5010312;28;20185;-81
2023/05/13 01:13:30;;;;;;;0.47;0.47;;;;;;;9.62;96.73;100851.50;5026713;28;20689;-81
2023/05/13 01:16:02;;;;;;;0.77;0.77;;;;;;;9.61;97.31;100856.16;5011319;28;20259;-81
2023/05/13 01:18:36;;;;;;;0.20;0.20;;;;;;;9.58;98.32;100851.31;5010371;28;20191;-81
2023/05/13 01:21:02;;;;;;;0.53;0.53;;;;;;;9.54;98.80;100847.50;5011546;28;20211;-82
2023/05/13 01:23:27;;;;;;;0.17;0.17;;;;;;;9.47;99.17;100852.53;5010016;28;20188;-81
2023/05/13 01:25:53;;;;;;;1.13;1.13;;;;;;;9.48;99.19;100846.78;5010629;28;20280;-81
2023/05/13 01:28:18;;;;;;;1.00;1.00;;;;;;;9.50;99.47;100849.22;5015004;28;20661;-81
2023/05/13 01:30:45;;;;;;;0.10;0.10;;;;;;;9.49;99.03;100842.94;5015103;28;20184;-82
2023/05/13 01:33:11;;;;;;;0.70;0.70;;;;;;;9.48;99.13;100844.06;5015638;28;20200;-81
2023/05/13 01:35:37;;;;;;;1.30;1.30;;;;;;;9.40;98.84;100844.72;5023002;28;20191;-82
2023/05/13 01:38:03;;;;;;;0.93;0.93;;;;;;;9.33;99.20;100849.72;5024501;28;20184;-82
2023/05/13 01:40:30;;;;;;;0.10;0.10;;;;;;;9.29;99.46;100845.16;5020500;28;20298;-82
2023/05/13 01:42:56;;;;;;;0.50;0.50;;;;;;;9.30;99.88;100860.41;5034335;28;20578;-82
2023/05/13 01:45:21;;;;;;;0.30;0.30;;;;;;;9.28;100.00;100852.53;5016715;28;20189;-82
2023/05/13 01:47:46;;;;;;;2.40;1.77;;;;;;;9.27;100.00;100861.81;5018737;28;20219;-82
2023/05/13 01:50:12;;;;;;;0.10;0.10;;;;;;;9.28;100.00;100857.97;5017301;28;20240;-81
2023/05/13 01:52:37;;;;;;;0.40;0.40;;;;;;;9.26;100.00;100857.47;5016638;28;20209;-81
2023/05/13 01:55:03;;;;;;;0.47;0.33;;;;;;;9.27;100.00;100855.53;5016849;28;20239;-81
2023/05/13 01:57:28;;;;;;;0.33;0.20;;;;;;;9.22;100.00;100862.66;5017600;28;20192;-82
2023/05/13 01:59:53;;;;;;;0.50;0.50;;;;;;;9.21;100.00;100858.31;5015751;28;20204;-81
2023/05/13 02:02:18;;;;;;;0.20;0.20;;;;;;;9.20;100.00;100862.16;5016905;28;20687;-82
2023/05/13 02:04:44;;;;;;;4.23;1.13;;;;;;;9.18;100.00;100864.38;5016297;28;20181;-82
2023/05/13 02:07:09;;;;;;;0.73;0.73;;;;;;;9.13;100.00;100858.16;5015905;28;20216;-81
2023/05/13 02:09:34;;;;;;;0.30;0.30;;;;;;;9.13;100.00;100861.72;5015364;28;20180;-82
2023/05/13 02:12:00;;;;;;;0.67;0.67;;;;;;;9.11;100.00;100852.19;5013679;28;20200;-82
2023/05/13 02:14:25;;;;;;;0.33;0.33;;;;;;;9.10;100.00;100858.72;5013756;28;20183;-81
2023/05/13 02:16:50;;;;;;;0.00;0.00;;;;;;;9.07;100.00;100856.59;5015588;28;20237;-81
2023/05/13 02:19:16;;;;;;;0.37;0.37;;;;;;;9.07;100.00;100853.88;5016949;28;20182;-82
2023/05/13 02:21:42;;;;;;;0.43;0.43;;;;;;;9.04;100.00;100851.72;5018013;28;20287;-82
2023/05/13 02:24:08;;;;;;;0.53;0.53;;;;;;;9.00;100.00;100846.06;5018135;28;20275;-81
2023/05/13 02:26:33;;;;;;;1.17;0.87;;;;;;;8.98;100.00;100851.00;5015922;28;20662;-82
2023/05/13 02:28:58;;;;;;;0.33;0.33;;;;;;;8.95;100.00;100855.09;5017346;28;20180;-82
2023/05/13 02:31:24;;;;;;;1.10;1.10;;;;;;;8.93;100.00;100857.28;5016427;28;20295;-82
2023/05/13 02:33:49;;;;;;;0.80;0.80;;;;;;;8.89;100.00;100852.72;5016248;28;20188;-82
2023/05/13 02:36:14;;;;;;;0.47;0.47;;;;;;;8.86;100.00;100858.75;5015963;28;20188;-81
2023/05/13 02:38:40;;;;;;;0.00;0.00;;;;;;;8.85;100.00;100849.78;5013389;28;20792;-81
2023/05/13 02:41:05;;;;;;;0.53;0.53;;;;;;;8.84;100.00;100861.78;5016867;28;20771;-81
2023/05/13 02:43:30;;;;;;;0.87;0.63;;;;;;;8.85;100.00;100862.59;5015273;28;20558;-82
2023/05/13 02:45:56;;;;;;;1.37;1.00;;;;;;;8.82;100.00;100855.78;5015752;28;20184;-82
2023/05/13 02:48:21;;;;;;;0.63;0.63;;;;;;;8.78;100.00;100857.47;5015492;28;20211;-82
2023/05/13 02:50:46;;;;;;;0.63;0.63;;;;;;;8.74;100.00;100853.69;5014265;28;20180;-81
2023/05/13 02:53:12;;;;;;;0.07;0.07;;;;;;;8.71;100.00;100864.38;5014383;28;20208;-81
2023/05/13 02:55:37;;;;;;;0.93;0.93;;;;;;;8.72;100.00;100855.09;5014181;28;20180;-83
2023/05/13 02:58:03;;;;;;;0.10;0.10;;;;;;;8.74;100.00;100852.88;5016080;28;20180;-82
2023/05/13 03:00:28;;;;;;;0.57;0.57;;;;;;;8.74;100.00;100847.44;5017646;28;20207;-82
2023/05/13 03:02:54;;;;;;;0.00;0.00;;;;;;;8.74;100.00;100850.16;5016137;28;20211;-82
2023/05/13 03:05:20;;;;;;;2.83;0.80;;;;;;;8.78;100.00;100859.38;5015599;28;20191;-82
2023/05/13 03:07:45;;;;;;;2.83;1.50;;;;;;;8.79;100.00;100861.81;5017242;28;20176;-81
2023/05/13 03:10:10;;;;;;;0.47;0.47;;;;;;;8.84;100.00;100861.78;5016920;28;20177;-83
2023/05/13 03:12:36;;;;;;;0.50;0.50;;;;;;;8.86;100.00;100865.03;5018461;28;20204;-82
2023/05/13 03:15:02;;;;;;;0.20;0.20;;;;;;;8.89;100.00;100872.59;5018290;28;20176;-82
2023/05/13 03:17:29;;;;;;;0.40;0.40;;;;;;;8.88;100.00;100867.44;5033873;28;20266;-81
2023/05/13 03:19:55;;;;;;;0.33;0.33;;;;;;;8.88;100.00;100867.44;5018240;28;20243;-82
2023/05/13 03:22:20;;;;;;;0.00;0.00;;;;;;;8.81;100.00;100865.06;5018662;28;20216;-82
2023/05/13 03:24:45;;;;;;;0.10;0.10;;;;;;;8.84;100.00;100869.94;5018218;28;20216;-82
2023/05/13 03:27:11;;;;;;;0.53;0.53;;;;;;;8.85;100.00;100871.56;5018532;28;20674;-82
2023/05/13 03:29:36;;;;;;;0.17;0.17;;;;;;;8.85;100.00;100873.47;5017629;28;20176;-82
2023/05/13 03:32:03;;;;;;;1.83;1.73;;;;;;;8.88;100.00;100870.19;5018183;28;20559;-84
2023/05/13 03:34:28;;;;;;;0.00;0.00;;;;;;;8.86;100.00;100875.91;5017575;28;20593;-82
2023/05/13 03:36:53;;;;;;;0.10;0.10;;;;;;;8.87;100.00;100866.63;5017806;28;20223;-82
2023/05/13 03:39:19;;;;;;;0.77;0.77;;;;;;;8.94;100.00;100880.72;5019105;28;20184;-82
2023/05/13 03:41:44;;;;;;;0.83;0.83;;;;;;;8.93;100.00;100872.84;5019904;28;20196;-81
2023/05/13 03:44:10;;;;;;;0.00;0.00;;;;;;;8.94;100.00;100878.00;5019637;28;20184;-81
2023/05/13 03:46:35;;;;;;;0.77;0.77;;;;;;;8.94;100.00;100886.16;5018381;28;20230;-82
2023/05/13 03:49:00;;;;;;;0.17;0.17;;;;;;;8.93;100.00;100881.81;5019349;28;20184;-82
2023/05/13 03:51:26;;;;;;;0.10;0.10;;;;;;;8.93;100.00;100890.00;5019427;28;20201;-81
2023/05/13 03:53:51;;;;;;;1.17;1.17;;;;;;;8.89;100.00;100886.22;5018720;28;20172;-81
2023/05/13 03:56:16;;;;;;;0.30;0.30;;;;;;;8.89;100.00;100894.41;5017425;28;20651;-82
2023/05/13 03:58:41;;;;;;;0.80;0.80;;;;;;;8.93;100.00;100894.63;5018783;28;20177;-81
2023/05/13 04:01:07;;;;;;;0.50;0.43;;;;;;;8.94;100.00;100888.88;5018344;28;20647;-81
2023/05/13 04:03:33;;;;;;;0.13;0.13;;;;;;;9.00;100.00;100889.66;5017601;28;20246;-80
2023/05/13 04:05:58;;;;;;;0.50;0.50;;;;;;;9.05;100.00;100888.78;5015098;28;20737;-80
2023/05/13 04:08:24;;;;;;;2.77;1.17;;;;;;;9.05;100.00;100889.59;5011401;28;20406;-80
2023/05/13 04:10:49;;;;;;;0.10;0.10;;;;;;;9.14;100.00;100889.78;5012564;28;20550;-80
2023/05/13 04:13:15;;;;;;;0.00;0.00;;;;;;;9.20;100.00;100897.59;5012810;28;20192;-80
2023/05/13 04:15:40;;;;;;;0.03;0.03;;;;;;;9.25;100.00;100902.16;5012198;28;20176;-80
2023/05/13 04:18:05;;;;;;;0.10;0.10;;;;;;;9.30;100.00;100898.59;5012721;28;20185;-80
2023/05/13 04:20:31;;;;;;;0.00;0.00;;;;;;;9.37;100.00;100901.75;5012089;28;20200;-80
2023/05/13 04:22:56;;;;;;;0.00;0.00;;;;;;;9.40;100.00;100893.81;5012121;28;20200;-80
2023/05/13 04:25:21;;;;;;;0.00;0.00;;;;;;;9.54;100.00;100908.34;5004479;28;20216;-81
2023/05/13 04:27:46;;;;;;;0.63;0.63;;;;;;;9.51;100.00;100902.66;5012083;28;20185;-81
2023/05/13 04:30:12;;;;;;;0.00;0.00;;;;;;;9.56;100.00;100899.06;5016779;28;20184;-81
2023/05/13 04:32:38;;;;;;;0.00;0.00;;;;;;;9.56;100.00;100894.44;5016153;28;20204;-81
2023/05/13 04:35:05;;;;;;;0.70;0.70;;;;;;;9.54;100.00;100904.78;5015531;28;20191;-81
2023/05/13 04:37:31;;;;;;;0.00;0.00;;;;;;;9.57;100.00;100906.16;5016038;28;20199;-81
2023/05/13 04:39:56;;;;;;;0.00;0.00;;;;;;;9.67;100.00;100909.53;5016033;28;20200;-82
2023/05/13 04:42:21;;;;;;;0.00;0.00;;;;;;;9.81;100.00;100912.34;5016089;28;20222;-81
2023/05/13 04:44:46;;;;;;;0.00;0.00;;;;;;;9.87;100.00;100908.44;5012462;28;20180;-81
2023/05/13 04:47:12;;;;;;;0.00;0.00;;;;;;;9.94;100.00;100908.88;5002923;28;20291;-81
2023/05/13 04:49:37;;;;;;;0.00;0.00;;;;;;;10.07;100.00;100904.59;5014576;28;20195;-81
2023/05/13 04:52:03;;;;;;;0.00;0.00;;;;;;;10.14;100.00;100908.59;5015758;28;20196;-81
2023/05/13 04:54:29;;;;;;;0.00;0.00;;;;;;;10.20;100.00;100909.31;5014083;28;20187;-81
2023/05/13 04:56:55;;;;;;;0.00;0.00;;;;;;;10.33;100.00;100913.22;5020768;28;20583;-81
2023/05/13 04:59:21;;;;;;;0.00;0.00;;;;;;;10.47;99.08;100916.81;5028511;28;20223;-81
2023/05/13 05:01:46;;;;;;;0.00;0.00;;;;;;;10.60;96.77;100912.50;5025949;28;20283;-81
2023/05/13 05:04:12;;;;;;;0.37;0.37;;;;;;;10.70;93.61;100920.50;5019391;28;20184;-81
2023/05/13 05:06:37;;;;;;;0.00;0.00;;;;;;;10.87;92.73;100923.50;5019417;28;20218;-81
2023/05/13 05:09:02;;;;;;;0.00;0.00;;;;;;;10.96;91.92;100923.59;5019286;28;20658;-81
2023/05/13 05:11:28;;;;;;;0.20;0.20;;;;;;;10.99;90.88;100914.78;5035697;28;20196;-81
2023/05/13 05:13:53;;;;;;;0.00;0.00;;;;;;;10.97;89.66;100915.09;5020583;28;20187;-81
2023/05/13 05:16:18;;;;;;;0.00;0.00;;;;;;;10.98;89.48;100918.63;5019695;28;20268;-81
2023/05/13 05:18:44;;;;;;;0.00;0.00;;;;;;;10.97;91.40;100917.81;5018307;28;20192;-81
2023/05/13 05:21:09;;;;;;;0.20;0.20;;;;;;;10.97;92.02;100919.75;5018195;28;20364;-81
2023/05/13 05:23:35;;;;;;;0.00;0.00;;;;;;;11.01;92.49;100926.25;5018489;28;20650;-81
2023/05/13 05:26:00;;;;;;;0.00;0.00;;;;;;;11.09;92.34;100925.53;5017443;28;20248;-81
2023/05/13 05:28:26;;;;;;;0.20;0.00;;;;;;;11.21;93.09;100927.78;5019898;28;20275;-81
2023/05/13 05:30:52;;;;;;;1.07;1.07;;;;;;;11.10;90.66;100926.34;5018087;28;20192;-81
2023/05/13 05:33:18;;;;;;;0.00;0.00;;;;;;;11.18;90.01;100920.19;5019666;28;20211;-81
2023/05/13 05:35:44;;;;;;;0.00;0.00;;;;;;;11.33;91.63;100926.16;5018791;28;20215;-81
2023/05/13 05:38:10;;;;;;;0.00;0.00;;;;;;;11.39;90.40;100926.84;5017702;28;20681;-82
2023/05/13 05:40:41;;;;;;;0.00;0.00;;;;;;;11.44;88.84;100925.97;5018149;28;20215;-81
2023/05/13 05:43:07;;;;;;;0.10;0.10;;;;;;;11.37;87.44;100920.88;5018744;28;20501;-81
2023/05/13 05:45:34;;;;;;;0.00;0.00;;;;;;;11.39;87.48;100928.78;5015036;28;20203;-80
2023/05/13 05:47:59;;;;;;;0.00;0.00;;;;;;;11.58;88.88;100940.44;5030517;28;20180;-82
2023/05/13 05:50:24;;;;;;;0.10;0.10;;;;;;;11.64;87.29;100933.72;5017261;28;20199;-81
2023/05/13 05:52:50;;;;;;;0.00;0.00;;;;;;;11.74;86.96;100929.97;5017222;28;20283;-81
2023/05/13 05:55:15;;;;;;;0.83;0.83;;;;;;;11.79;85.09;100925.22;5016778;28;20560;-81
2023/05/13 05:57:40;;;;;;;0.70;0.70;;;;;;;11.76;83.78;100920.34;5016571;28;20219;-80
2023/05/13 06:00:06;;;;;;;0.00;0.00;;;;;;;11.86;84.01;100922.03;5017649;28;20267;-81
2023/05/13 06:02:32;;;;;;;0.67;0.67;;;;;;;11.85;83.41;100921.25;5019615;28;20254;-82
2023/05/13 06:04:57;;;;;;;1.03;1.03;;;;;;;12.10;84.44;100930.00;5022143;28;20180;-81
2023/05/13 06:07:22;;;;;;;0.00;0.00;;;;;;;12.13;83.30;100919.22;5020653;28;20673;-81
2023/05/13 06:09:47;;;;;;;0.00;0.00;;;;;;;12.14;82.30;100917.28;5019910;28;20227;-80
2023/05/13 06:12:13;;;;;;;5.63;1.60;;;;;;;12.19;83.08;100925.41;5037300;28;20694;-81
2023/05/13 06:14:38;;;;;;;1.33;0.87;;;;;;;12.22;83.05;100922.03;5021048;28;20203;-80
2023/05/13 06:17:03;;;;;;;0.00;0.00;;;;;;;12.27;82.64;100927.41;5020260;28;20181;-80
2023/05/13 06:19:29;;;;;;;0.20;0.20;;;;;;;12.42;82.46;100927.03;5020525;28;20223;-81
2023/05/13 06:21:54;;;;;;;0.00;0.00;;;;;;;12.52;82.54;100934.19;5020651;28;20205;-80
2023/05/13 06:24:20;;;;;;;2.17;2.07;;;;;;;12.51;81.46;100927.91;5019236;28;20218;-81
2023/05/13 06:26:45;;;;;;;0.10;0.10;;;;;;;12.56;82.39;100928.88;5018942;28;20185;-80
2023/05/13 06:29:10;;;;;;;0.87;0.87;;;;;;;12.55;82.01;100932.75;5019627;28;20188;-80
2023/05/13 06:31:36;;;;;;;0.37;0.37;;;;;;;12.60;81.77;100938.94;5018822;28;20219;-81
2023/05/13 06:34:01;;;;;;;0.23;0.20;;;;;;;12.60;80.47;100927.16;5020352;28;20184;-81
2023/05/13 06:36:26;;;;;;;1.07;1.07;;;;;;;12.70;81.87;100935.91;5019470;28;20182;-81
2023/05/13 06:38:52;;;;;;;1.50;1.40;;;;;;;12.74;81.86;100933.38;5019923;28;20673;-80
2023/05/13 06:41:17;;;;;;;0.00;0.00;;;;;;;12.77;81.74;100930.00;5019650;28;20209;-81
2023/05/13 06:43:44;;;;;;;0.40;0.40;;;;;;;12.93;82.67;100935.88;5017872;28;20201;-81
2023/05/13 06:46:10;;;;;;;1.60;1.50;;;;;;;13.10;82.64;100936.78;5017729;28;20353;-81
2023/05/13 06:48:36;;;;;;;0.20;0.20;;;;;;;13.04;81.51;100927.06;5017031;28;20184;-81
2023/05/13 06:51:01;;;;;;;0.00;0.00;;;;;;;13.17;82.50;100938.28;5019104;28;20549;-81
2023/05/13 06:53:26;;;;;;;1.27;1.17;;;;;;;13.26;82.52;100934.44;5016828;28;20185;-81
2023/05/13 06:55:51;;;;;;;0.17;0.17;;;;;;;13.22;82.11;100938.16;5017327;28;20196;-79
2023/05/13 06:58:17;;;;;;;0.10;0.10;;;;;;;13.36;83.05;100938.84;5018072;28;20655;-81
2023/05/13 07:00:42;;;;;;;0.00;0.00;;;;;;;13.49;82.59;100932.44;5018042;28;20247;-79
2023/05/13 07:03:08;;;;;;;0.80;0.80;;;;;;;13.51;80.98;100941.16;5017534;28;20258;-80
2023/05/13 07:05:34;;;;;;;0.00;0.00;;;;;;;13.61;81.20;100926.34;5016547;28;20180;-80
2023/05/13 07:08:00;;;;;;;0.40;0.40;;;;;;;13.54;80.60;100924.03;5016349;28;20187;-81
2023/05/13 07:10:25;;;;;;;0.43;0.43;;;;;;;13.59;81.17;100932.13;5017297;28;20173;-81
2023/05/13 07:12:51;;;;;;;0.17;0.17;;;;;;;13.70;81.18;100933.44;5016954;28;20231;-81
2023/05/13 07:15:16;;;;;;;0.20;0.20;;;;;;;13.66;80.52;100926.97;5017309;28;20267;-81
2023/05/13 07:17:42;;;;;;;0.50;0.50;;;;;;;13.67;80.77;100931.34;5016311;28;20180;-81
2023/05/13 07:20:08;;;;;;;0.00;0.00;;;;;;;13.95;82.77;100945.59;5016141;28;20638;-79
2023/05/13 07:22:34;;;;;;;2.67;0.20;;;;;;;14.07;81.59;100935.91;5030441;28;20209;-80
2023/05/13 07:25:00;;;;;;;0.00;0.00;;;;;;;14.04;80.87;100936.56;5015035;28;20180;-81
2023/05/13 07:27:25;;;;;;;2.63;2.43;;;;;;;14.13;80.69;100932.69;5016082;28;20538;-81
2023/05/13 07:29:51;;;;;;;0.70;0.70;;;;;;;14.15;79.67;100927.66;5016062;28;20233;-80
2023/05/13 07:32:16;;;;;;;0.40;0.40;;;;;;;14.20;78.47;100927.50;5015930;28;20205;-82
2023/05/13 07:34:42;;;;;;;0.00;0.00;;;;;;;14.33;78.53;100928.47;5016535;28;20204;-81
2023/05/13 07:37:07;;;;;;;0.20;0.20;;;;;;;14.41;78.40;100921.34;5016832;28;20181;-81
2023/05/13 07:39:32;;;;;;;0.87;0.83;;;;;;;14.51;78.91;100932.03;5015566;28;20245;-81
2023/05/13 07:41:57;;;;;;;0.43;0.43;;;;;;;14.55;77.87;100922.81;5014645;28;20200;-81
2023/05/13 07:44:23;;;;;;;0.10;0.10;;;;;;;14.84;78.09;100930.34;5013022;28;20552;-80
2023/05/13 07:46:50;;;;;;;0.70;0.70;;;;;;;14.91;77.27;100918.03;5010191;28;20264;-80
2023/05/13 07:49:15;;;;;;;0.43;0.43;;;;;;;14.85;77.05;100920.97;5012142;28;20531;-80
2023/05/13 07:51:41;;;;;;;1.83;1.73;;;;;;;14.88;76.84;100925.78;5011940;28;20279;-81
2023/05/13 07:54:06;;;;;;;1.53;1.10;;;;;;;15.08;77.33;100929.00;5012169;28;20176;-80
2023/05/13 07:56:31;;;;;;;1.70;1.60;;;;;;;15.02;76.28;100933.03;5011817;28;20196;-81
2023/05/13 07:58:56;;;;;;;0.70;0.70;;;;;;;15.05;76.14;100918.66;5012227;28;20238;-80
2023/05/13 08:01:22;;;;;;;0.27;0.27;;;;;;;15.29;79.15;100940.88;5012018;28;20201;-80
2023/05/13 08:03:47;;;;;;;5.67;3.37;;;;;;;15.14;77.37;100922.16;5012242;28;20192;-81
2023/05/13 08:06:12;;;;;;;0.63;0.63;;;;;;;15.24;76.81;100926.50;5011877;28;20187;-81
2023/05/13 08:08:38;;;;;;;1.00;1.00;;;;;;;15.29;74.49;100918.84;5011897;28;20274;-80
2023/05/13 08:11:03;;;;;;;1.80;1.03;;;;;;;15.46;74.59;100924.25;5011546;28;20176;-80
2023/05/13 08:13:28;;;;;;;2.40;2.10;;;;;;;15.44;74.92;100926.53;4992095;28;20181;-80
2023/05/13 08:15:54;;;;;;;0.00;0.00;;;;;;;15.37;75.25;100925.47;5003941;28;20208;-80
2023/05/13 08:18:19;;;;;;;5.07;2.60;;;;;;;15.41;74.91;100923.66;4995137;28;20181;-81
2023/05/13 08:20:44;;;;;;;4.90;2.00;;;;;;;15.58;73.55;100914.47;5011346;28;20243;-82
2023/05/13 08:23:10;;;;;;;0.43;0.43;;;;;;;15.66;71.79;100919.16;5015479;28;20208;-81
2023/05/13 08:25:35;;;;;;;0.53;0.53;;;;;;;15.66;72.62;100913.66;5022626;28;20211;-82
2023/05/13 08:28:02;;;;;;;2.87;2.67;;;;;;;15.82;73.11;100911.13;5020342;28;20184;-82
2023/05/13 08:30:27;;;;;;;1.47;1.30;;;;;;;15.94;71.48;100903.72;5018672;28;20177;-82
2023/05/13 08:32:52;;;;;;;0.10;0.10;;;;;;;15.98;70.33;100896.41;5019850;28;20211;-82
2023/05/13 08:35:18;;;;;;;0.33;0.33;;;;;;;16.25;70.89;100903.31;5018501;28;20594;-81
2023/05/13 08:37:43;;;;;;;0.87;0.87;;;;;;;16.21;69.13;100890.53;5018328;28;20184;-82
2023/05/13 08:40:10;;;;;;;1.17;0.77;;;;;;;16.21;68.97;100904.31;5010867;28;20208;-82
2023/05/13 08:42:38;;;;;;;5.63;2.67;;;;;;;16.05;69.29;100904.91;4998894;28;20200;-81
2023/05/13 08:45:06;;;;;;;2.23;2.03;;;;;;;16.18;69.36;100903.03;5015611;28;20215;-81
2023/05/13 08:47:58;;;;;;;0.50;0.50;;;;;;;16.41;66.66;100900.72;4998564;28;20204;-82
2023/05/13 08:50:24;;;;;;;2.10;1.30;;;;;;;16.47;65.93;100891.06;5007204;28;20181;-81
2023/05/13 08:52:52;;;;;;;0.00;0.00;;;;;;;16.55;66.80;100901.22;5010076;28;20233;-81
2023/05/13 08:55:18;;;;;;;1.67;1.57;;;;;;;16.53;66.76;100892.50;5015996;28;20172;-80
2023/05/13 08:57:43;;;;;;;1.43;1.33;;;;;;;16.44;67.35;100890.94;5017901;28;20220;-83
2023/05/13 09:00:09;;;;;;;0.67;0.67;;;;;;;16.69;67.54;100894.63;5018046;28;20295;-82
2023/05/13 09:02:35;;;;;;;4.87;1.23;;;;;;;16.82;66.65;100893.50;5018354;28;20204;-81
2023/05/13 09:05:06;;;;;;;1.43;1.43;;;;;;;17.03;66.68;100890.66;5005055;28;20260;-83
2023/05/13 09:07:32;;;;;;;2.00;1.77;;;;;;;17.01;67.02;100899.28;5011920;28;20188;-82
2023/05/13 09:09:57;;;;;;;2.93;2.77;;;;;;;17.03;65.96;100894.22;5016170;28;20657;-82
2023/05/13 09:12:54;;;;;;;0.00;0.00;;;;;;;17.34;67.41;100906.66;5028509;28;20250;-83
2023/05/13 09:15:22;;;;;;;1.03;0.93;;;;;;;17.45;67.45;100907.78;5014577;28;20244;-82
2023/05/13 09:17:51;;;;;;;0.97;0.93;;;;;;;17.48;67.55;100907.91;5015352;28;20315;-82
2023/05/13 09:20:18;;;;;;;0.40;0.40;;;;;;;17.65;66.58;100901.34;5016804;28;20550;-83
2023/05/13 09:22:48;;;;;;;1.00;1.00;;;;;;;17.66;66.21;100899.38;5014772;28;20205;-83
2023/05/13 09:25:15;;;;;;;0.47;0.47;;;;;;;17.34;66.57;100901.13;5014435;28;20191;-83
2023/05/13 09:27:47;;;;;;;0.50;0.50;;;;;;;17.70;66.70;100909.41;4999587;28;20244;-81
2023/05/13 09:30:12;;;;;;;1.40;1.30;;;;;;;17.86;66.99;100900.41;5014499;28;20180;-84
2023/05/13 09:32:38;;;;;;;1.67;1.23;;;;;;;17.95;67.38;100904.66;5014794;28;20200;-83
2023/05/13 09:35:15;;;;;;;3.30;3.07;;;;;;;17.78;64.65;100880.81;5014389;28;20180;-83
2023/05/13 09:37:41;;;;;;;1.90;1.80;;;;;;;17.84;65.30;100887.75;5030072;28;20190;-84
2023/05/13 09:40:11;;;;;;;0.30;0.30;;;;;;;17.92;65.10;100885.97;5030540;28;20208;-82
2023/05/13 09:42:40;;;;;;;1.07;0.97;;;;;;;17.88;64.61;100889.78;5009112;28;20323;-82
2023/05/13 09:45:06;;;;;;;1.23;1.13;;;;;;;17.98;66.02;100889.31;5010483;28;20192;-82
2023/05/13 09:47:34;;;;;;;1.73;1.63;;;;;;;18.09;65.33;100884.91;5026653;28;20188;-82
2023/05/13 09:50:02;;;;;;;1.70;1.60;;;;;;;18.20;64.01;100887.94;5014221;28;20180;-82
2023/05/13 09:52:29;;;;;;;2.40;2.23;;;;;;;18.43;62.55;100886.25;5013121;28;20204;-83
2023/05/13 09:54:58;;;;;;;4.33;3.63;;;;;;;18.10;60.26;100858.84;5014619;28;20713;-82
2023/05/13 09:57:27;;;;;;;1.40;1.30;;;;;;;18.31;61.45;100873.28;5013500;28;20697;-82
2023/05/13 10:00:00;;;;;;;3.33;1.47;;;;;;;18.29;61.00;100872.81;5014376;28;20287;-82
2023/05/13 10:02:26;;;;;;;0.47;0.47;;;;;;;18.29;61.67;100883.09;5014539;28;20275;-82
2023/05/13 10:04:55;;;;;;;4.93;2.77;;;;;;;18.47;61.07;100873.31;5014585;28;20614;-82
2023/05/13 10:07:24;;;;;;;2.10;2.00;;;;;;;18.49;61.25;100876.50;5029236;28;20187;-82
2023/05/13 10:09:57;;;;;;;0.60;0.60;;;;;;;18.63;63.00;100895.47;5013851;28;20549;-82
2023/05/13 10:12:26;;;;;;;2.07;1.93;;;;;;;18.64;60.54;100870.22;5012667;28;20274;-82
2023/05/13 10:14:54;;;;;;;0.87;0.87;;;;;;;18.89;61.06;100873.66;5012164;28;20539;-82
2023/05/13 10:17:21;;;;;;;0.20;0.20;;;;;;;18.93;59.30;100860.69;5034520;28;20259;-83
2023/05/13 10:19:51;;;;;;;3.37;1.43;;;;;;;18.96;58.54;100843.38;5020354;28;20680;-83
2023/05/13 10:22:30;;;;;;;1.53;1.43;;;;;;;18.89;58.76;100856.22;5019878;28;20204;-83
2023/05/13 10:24:57;;;;;;;0.30;0.30;;;;;;;19.03;57.37;100848.28;5021886;28;20240;-83
2023/05/13 10:27:28;;;;;;;15.20;1.57;;;;;;;19.16;58.10;100860.88;5020442;28;20195;-83
2023/05/13 10:29:55;;;;;;;1.80;1.70;;;;;;;19.29;59.95;100864.34;5021289;28;20184;-83
2023/05/13 10:32:26;;;;;;;2.90;1.37;;;;;;;19.40;59.04;100853.50;5015383;28;20239;-82
2023/05/13 10:35:03;;;;;;;1.53;1.43;;;;;;;19.23;55.20;100835.28;4997538;28;20666;-82
2023/05/13 10:37:41;;;;;;;0.57;0.57;;;;;;;19.31;52.94;100828.75;5028550;28;20188;-81
2023/05/13 10:40:33;;;;;;;1.63;1.53;;;;;;;19.32;53.23;100833.94;5013768;28;20200;-82
2023/05/13 10:43:16;;;;;;;0.43;0.43;;;;;;;19.65;53.47;100846.56;5013639;28;20526;-82
2023/05/13 10:45:49;;;;;;;1.53;1.43;;;;;;;19.44;50.34;100818.34;5011432;28;20196;-81
2023/05/13 10:48:16;;;;;;;0.80;0.80;;;;;;;19.49;52.82;100845.78;5019741;28;20191;-83
2023/05/13 10:50:53;;;;;;;0.63;0.63;;;;;;;19.51;54.08;100854.53;5016191;28;20740;-82
2023/05/13 10:53:30;;;;;;;2.57;2.40;;;;;;;19.35;50.84;100826.88;5017857;28;20183;-83
2023/05/13 10:55:58;;;;;;;1.73;1.50;;;;;;;19.31;50.94;100829.56;5017542;28;20218;-82
2023/05/13 10:58:29;;;;;;;0.60;0.60;;;;;;;19.49;50.11;100823.59;5016075;28;20189;-82
2023/05/13 11:01:12;;;;;;;0.47;0.47;;;;;;;19.70;51.09;100826.09;5016826;28;20204;-83
2023/05/13 11:03:39;;;;;;;1.30;1.07;;;;;;;19.71;48.76;100820.19;5012557;28;20184;-82
2023/05/13 11:06:18;;;;;;;0.60;0.60;;;;;;;19.76;50.84;100830.97;5012587;28;20181;-81
2023/05/13 11:08:45;;;;;;;0.43;0.43;;;;;;;19.94;51.09;100839.66;5012824;28;20203;-82
2023/05/13 11:11:21;;;;;;;0.10;0.10;;;;;;;20.20;52.58;100847.31;5013282;28;20205;-82
2023/05/13 11:13:49;;;;;;;0.70;0.70;;;;;;;19.98;50.97;100832.22;5013160;28;20172;-81
2023/05/13 11:16:14;;;;;;;0.60;0.57;;;;;;;20.14;51.81;100837.69;5011600;28;20208;-81
2023/05/13 11:18:40;;;;;;;1.27;1.27;;;;;;;19.85;52.41;100837.09;5018449;28;20184;-83
2023/05/13 11:21:06;;;;;;;2.37;0.93;;;;;;;19.89;52.67;100845.50;5015877;28;20202;-82
2023/05/13 11:23:48;;;;;;;2.77;1.37;;;;;;;19.71;51.26;100833.22;5008270;28;20287;-83
2023/05/13 11:26:18;;;;;;;3.40;1.93;;;;;;;20.10;52.38;100848.69;5011880;28;20528;-82